Time;durP1;ratioP1;P1;durP2;ratioP2;P2;SDS_P1;SDS_P2;PMS_P1;PMS_P2;Temp;Humidity;BMP_temperature;BMP_pressure;BME280_temperature;BME280_humidity;BME280_pressure;Samples;Min_cycle;Max_cycle;Signal;HPM_P1;HPM_P2
2022/11/07 00:01:18;;;;;;;10.55;3.38;;;;;;;15.50;100.00;100503.22;4985951;28;20294;-52
2022/11/07 00:03:44;;;;;;;10.07;3.50;;;;;;;15.44;100.00;100504.97;4984726;28;20050;-49
2022/11/07 00:06:10;;;;;;;14.80;4.00;;;;;;;15.83;100.00;100509.81;4987085;28;20277;-50
2022/11/07 00:08:36;;;;;;;12.18;4.20;;;;;;;15.73;100.00;100509.63;4986163;28;20098;-51
2022/11/07 00:11:03;;;;;;;12.70;4.07;;;;;;;15.78;100.00;100509.72;4986944;28;20046;-53
2022/11/07 00:13:29;;;;;;;10.87;3.40;;;;;;;15.93;100.00;100511.13;4987786;28;20057;-51
2022/11/07 00:16:00;;;;;;;10.77;3.58;;;;;;;15.69;100.00;100521.94;5000645;28;20274;-47
2022/11/07 00:18:26;;;;;;;9.83;3.10;;;;;;;16.14;100.00;100517.72;4986936;28;20042;-51
2022/11/07 00:20:51;;;;;;;8.52;3.58;;;;;;;16.06;100.00;100516.22;4975638;28;20276;-50
2022/11/07 00:23:16;;;;;;;15.10;3.33;;;;;;;16.00;100.00;100522.59;4988427;28;20050;-53
2022/11/07 00:25:42;;;;;;;14.47;4.10;;;;;;;16.04;100.00;100521.03;4987469;28;20061;-48
2022/11/07 00:28:07;;;;;;;12.57;4.10;;;;;;;15.71;100.00;100531.41;4991364;28;20034;-51
2022/11/07 00:30:33;;;;;;;10.00;4.07;;;;;;;16.15;100.00;100524.75;4989291;28;20070;-49
2022/11/07 00:32:59;;;;;;;12.60;3.90;;;;;;;16.24;100.00;100527.91;4988389;28;20276;-48
2022/11/07 00:35:24;;;;;;;7.63;3.50;;;;;;;16.38;100.00;100529.25;4990220;28;20034;-49
2022/11/07 00:37:50;;;;;;;7.90;3.88;;;;;;;15.90;100.00;100526.69;4991317;28;20058;-54
2022/11/07 00:40:15;;;;;;;16.30;4.23;;;;;;;16.12;100.00;100530.66;4987937;28;20045;-53
2022/11/07 00:42:41;;;;;;;13.50;3.80;;;;;;;15.89;100.00;100529.66;4989222;28;20042;-52
2022/11/07 00:45:07;;;;;;;9.27;3.47;;;;;;;16.19;100.00;100524.06;4989427;28;20039;-48
2022/11/07 00:47:32;;;;;;;14.48;3.88;;;;;;;15.94;100.00;100553.22;4990089;28;20328;-51
2022/11/07 00:49:57;;;;;;;13.80;3.90;;;;;;;16.14;100.00;100559.00;4989348;28;20046;-48
2022/11/07 00:52:23;;;;;;;8.20;2.90;;;;;;;16.22;100.00;100568.59;4991610;28;20119;-52
2022/11/07 00:54:48;;;;;;;7.80;3.20;;;;;;;16.18;100.00;100535.06;4990857;28;20056;-48
2022/11/07 00:57:14;;;;;;;8.68;2.75;;;;;;;16.04;100.00;100526.44;4987172;28;20039;-53
2022/11/07 00:59:39;;;;;;;11.67;3.47;;;;;;;16.07;100.00;100530.56;4988872;28;20062;-50
2022/11/07 01:02:05;;;;;;;13.73;3.47;;;;;;;15.88;100.00;100531.53;4985933;28;20287;-50
2022/11/07 01:07:14;;;;;;;9.47;3.50;;;;;;;15.91;100.00;100552.63;4989956;28;20035;-52
2022/11/07 01:09:40;;;;;;;8.87;3.00;;;;;;;16.00;100.00;100547.66;4990194;28;20284;-48
2022/11/07 01:12:05;;;;;;;13.80;3.93;;;;;;;16.16;100.00;100546.13;4988903;28;20337;-47
2022/11/07 01:14:31;;;;;;;15.75;4.43;;;;;;;16.10;100.00;100557.84;4991589;28;20035;-51
2022/11/07 01:16:56;;;;;;;11.65;2.80;;;;;;;16.13;100.00;100553.84;4990217;28;20038;-47
2022/11/07 01:19:22;;;;;;;8.70;3.40;;;;;;;16.46;100.00;100545.03;4990712;28;20057;-50
2022/11/07 01:21:48;;;;;;;14.50;4.07;;;;;;;15.97;100.00;100563.53;4988974;28;20284;-49
2022/11/07 01:24:15;;;;;;;16.58;3.92;;;;;;;16.41;100.00;100563.84;4990064;28;20043;-53
2022/11/07 01:26:42;;;;;;;11.17;4.00;;;;;;;16.15;100.00;100560.66;4986387;28;20050;-52
2022/11/07 01:29:08;;;;;;;12.60;2.40;;;;;;;16.10;100.00;100576.72;4989994;28;20276;-49
2022/11/07 01:31:34;;;;;;;16.13;3.60;;;;;;;15.72;100.00;100562.72;4989742;28;20340;-49
2022/11/07 01:33:59;;;;;;;16.50;3.37;;;;;;;15.99;100.00;100569.50;4989104;28;20031;-50
2022/11/07 01:36:26;;;;;;;11.47;3.77;;;;;;;15.85;100.00;100574.31;4986008;28;20270;-51
2022/11/07 01:38:52;;;;;;;10.03;3.43;;;;;;;15.91;100.00;100568.81;4992349;28;20060;-49
2022/11/07 01:41:24;;;;;;;14.48;3.75;;;;;;;15.73;100.00;100567.03;4989025;28;20272;-51
2022/11/07 01:44:07;;;;;;;12.00;4.40;;;;;;;15.96;100.00;100588.84;4988251;28;20039;-51
2022/11/07 01:46:35;;;;;;;9.63;4.30;;;;;;;15.65;100.00;100580.06;4988360;28;20268;-47
2022/11/07 01:49:16;;;;;;;22.20;4.00;;;;;;;15.51;100.00;100579.47;4986213;28;20343;-51
2022/11/07 01:52:01;;;;;;;15.07;4.33;;;;;;;15.77;100.00;100576.28;5040442;28;20286;-50
2022/11/07 01:54:33;;;;;;;13.17;4.60;;;;;;;15.96;100.00;100592.34;5059900;28;20258;-52
2022/11/07 01:57:04;;;;;;;18.47;4.30;;;;;;;16.19;100.00;100574.47;5055996;28;20270;-49
2022/11/07 01:59:32;;;;;;;15.40;4.17;;;;;;;16.26;100.00;100602.16;5060764;28;20281;-50
2022/11/07 02:01:58;;;;;;;13.53;3.70;;;;;;;16.26;100.00;100579.75;5051033;28;20259;-53
2022/11/07 02:04:28;;;;;;;13.90;4.40;;;;;;;15.99;100.00;100580.28;5058563;28;20289;-49
2022/11/07 02:07:04;;;;;;;11.93;4.07;;;;;;;16.26;100.00;100590.53;5054883;28;20036;-54
2022/11/07 02:09:30;;;;;;;13.17;3.93;;;;;;;16.62;100.00;100593.94;5054796;28;20317;-53
2022/11/07 02:11:59;;;;;;;17.38;4.25;;;;;;;16.05;100.00;100592.81;5054684;28;20278;-53
2022/11/07 02:14:26;;;;;;;10.87;4.63;;;;;;;16.08;100.00;100597.72;5058010;28;20033;-48
2022/11/07 02:16:53;;;;;;;16.97;3.80;;;;;;;16.45;100.00;100592.00;5060400;28;20277;-49
2022/11/07 02:19:31;;;;;;;15.57;4.50;;;;;;;16.29;100.00;100595.44;5062030;28;20297;-48
2022/11/07 02:22:07;;;;;;;16.10;4.30;;;;;;;16.11;100.00;100586.47;5059140;28;20282;-49
2022/11/07 02:24:36;;;;;;;11.90;4.00;;;;;;;16.12;100.00;100592.69;5051948;28;20267;-54
2022/11/07 02:27:06;;;;;;;11.37;4.43;;;;;;;16.33;100.00;100618.19;5061259;28;20060;-53
2022/11/07 02:29:34;;;;;;;15.40;3.87;;;;;;;16.56;100.00;100589.47;5059713;28;20275;-54
2022/11/07 02:32:03;;;;;;;14.50;5.30;;;;;;;15.69;100.00;100586.63;5059678;28;20267;-53
2022/11/07 02:34:29;;;;;;;13.17;4.60;;;;;;;16.19;100.00;100596.88;5059036;28;20269;-54
2022/11/07 02:36:55;;;;;;;17.63;5.38;;;;;;;16.46;100.00;100574.75;5059964;28;20266;-51
2022/11/07 02:39:21;;;;;;;18.57;5.17;;;;;;;15.89;100.00;100587.09;5056321;28;20037;-51
2022/11/07 02:41:49;;;;;;;14.57;4.88;;;;;;;15.97;100.00;100591.28;5056391;28;20266;-54
2022/11/07 02:44:14;;;;;;;14.53;5.77;;;;;;;15.90;100.00;100587.91;5061978;28;20033;-53
2022/11/07 02:46:40;;;;;;;16.63;5.33;;;;;;;15.83;100.00;100582.63;5061837;28;20301;-55
2022/11/07 02:49:06;;;;;;;16.05;4.50;;;;;;;16.05;100.00;100595.50;5059133;28;20060;-52
2022/11/07 02:51:32;;;;;;;10.37;4.30;;;;;;;15.96;100.00;100591.56;5030222;28;20047;-52
2022/11/07 02:53:57;;;;;;;17.60;4.80;;;;;;;15.80;100.00;100588.50;4987389;28;20054;-50
2022/11/07 02:56:23;;;;;;;15.77;3.90;;;;;;;15.76;100.00;100592.72;4987702;28;20076;-51
2022/11/07 02:58:48;;;;;;;16.42;4.45;;;;;;;15.99;100.00;100581.09;4987728;28;20041;-51
2022/11/07 03:01:14;;;;;;;15.48;3.58;;;;;;;15.93;100.00;100571.25;4989280;28;20042;-53
2022/11/07 03:03:42;;;;;;;10.07;3.08;;;;;;;16.16;100.00;100575.78;4991477;28;20099;-53
2022/11/07 03:06:10;;;;;;;10.03;3.97;;;;;;;16.14;100.00;100577.88;4989220;28;20105;-49
2022/11/07 03:08:37;;;;;;;16.07;4.93;;;;;;;16.30;100.00;100591.69;4988080;28;20333;-50
2022/11/07 03:11:03;;;;;;;13.88;3.28;;;;;;;16.67;100.00;100576.97;4984255;28;20320;-52
2022/11/07 03:13:28;;;;;;;7.85;2.90;;;;;;;17.03;100.00;100591.16;4991398;28;20035;-52
2022/11/07 03:15:54;;;;;;;22.13;4.20;;;;;;;16.83;100.00;100583.47;4988155;28;20038;-48
2022/11/07 03:18:20;;;;;;;19.70;3.78;;;;;;;17.27;100.00;100594.50;4990909;28;20035;-53
2022/11/07 03:20:46;;;;;;;18.20;4.40;;;;;;;16.55;100.00;100583.25;4988815;28;20038;-50
2022/11/07 03:23:12;;;;;;;11.55;3.47;;;;;;;16.95;100.00;100586.94;4989062;28;20097;-49
2022/11/07 03:25:38;;;;;;;14.63;3.87;;;;;;;16.88;100.00;100580.88;4991053;28;20058;-48
2022/11/07 03:28:03;;;;;;;12.33;3.87;;;;;;;16.99;100.00;100592.69;4992846;28;20295;-52
2022/11/07 03:30:29;;;;;;;13.97;3.93;;;;;;;17.01;100.00;100585.16;4992243;28;20276;-49
2022/11/07 03:32:55;;;;;;;16.13;3.83;;;;;;;16.81;100.00;100591.81;4990646;28;20058;-53
2022/11/07 03:35:21;;;;;;;22.47;3.83;;;;;;;16.62;100.00;100602.81;4993988;28;20043;-52
2022/11/07 03:37:48;;;;;;;14.30;3.30;;;;;;;17.31;100.00;100586.72;4994291;28;20340;-49
2022/11/07 03:40:15;;;;;;;15.93;3.70;;;;;;;17.24;100.00;100603.09;4991950;28;20272;-53
2022/11/07 03:42:42;;;;;;;17.37;3.40;;;;;;;17.38;100.00;100595.47;4992204;28;20291;-50
2022/11/07 03:45:10;;;;;;;15.37;3.10;;;;;;;17.09;100.00;100608.25;4994214;28;20269;-47
2022/11/07 03:47:37;;;;;;;10.70;2.80;;;;;;;18.12;100.00;100596.22;4990199;28;20269;-52
2022/11/07 03:50:06;;;;;;;14.63;3.10;;;;;;;17.47;100.00;100598.56;4990053;28;20265;-52
2022/11/07 03:52:31;;;;;;;16.13;3.93;;;;;;;18.10;100.00;100611.91;4992081;28;20277;-50
2022/11/07 03:54:57;;;;;;;16.73;3.73;;;;;;;18.26;100.00;100602.06;4990838;28;20268;-50
2022/11/07 03:57:23;;;;;;;15.73;3.20;;;;;;;18.32;100.00;100606.47;4990004;28;20280;-52
2022/11/07 03:59:49;;;;;;;17.70;3.40;;;;;;;17.69;100.00;100600.50;4991093;28;20062;-53
2022/11/07 04:02:14;;;;;;;17.00;3.67;;;;;;;17.51;100.00;100604.31;4991796;28;20284;-49
2022/11/07 04:04:40;;;;;;;23.00;4.43;;;;;;;17.03;100.00;100608.16;4990475;28;20030;-49
2022/11/07 04:07:05;;;;;;;16.27;3.07;;;;;;;17.46;100.00;100605.03;4991822;28;20062;-48
2022/11/07 04:09:31;;;;;;;19.38;3.80;;;;;;;17.30;100.00;100609.41;4993389;28;20038;-48
2022/11/07 04:17:27;;;;;;;16.13;4.03;;;;;;;17.87;100.00;100611.03;4993328;28;20287;-50
2022/11/07 04:19:54;;;;;;;20.43;5.37;;;;;;;17.65;100.00;100604.78;4990756;28;20296;-48
2022/11/07 04:22:24;;;;;;;14.17;4.77;;;;;;;17.61;100.00;100616.09;4990591;28;20277;-51
2022/11/07 04:24:50;;;;;;;16.27;4.33;;;;;;;17.51;100.00;100598.91;4991363;28;20264;-48
2022/11/07 04:32:55;;;;;;;19.20;4.60;;;;;;;17.33;100.00;100615.16;4991328;28;20328;-51
2022/11/07 04:35:23;;;;;;;12.43;3.97;;;;;;;17.41;100.00;100608.47;4992249;28;20281;-50
2022/11/07 04:37:48;;;;;;;17.07;4.80;;;;;;;17.82;100.00;100621.81;4991154;28;20265;-51
2022/11/07 04:40:16;;;;;;;16.50;4.35;;;;;;;17.44;100.00;100620.69;4990799;28;20280;-49
2022/11/07 04:42:42;;;;;;;14.83;4.87;;;;;;;17.78;100.00;100620.66;4991263;28;20053;-48
2022/11/07 04:45:08;;;;;;;;;;;;;;;17.30;100.00;100621.03;4987088;28;20292;-47
2022/11/07 04:47:34;;;;;;;20.27;3.87;;;;;;;17.49;100.00;100612.66;4989263;28;19914;-46
2022/11/07 04:50:00;;;;;;;20.40;5.20;;;;;;;17.69;100.00;100616.72;4990217;28;20043;-47
2022/11/07 04:52:26;;;;;;;21.27;5.93;;;;;;;17.72;100.00;100617.06;4985414;28;20110;-49
2022/11/07 04:54:52;;;;;;;16.93;5.60;;;;;;;17.83;100.00;100618.03;4989937;28;20054;-48
2022/11/07 04:57:18;;;;;;;18.08;4.30;;;;;;;17.91;100.00;100609.47;4990909;28;20062;-51
2022/11/07 04:59:43;;;;;;;14.93;4.20;;;;;;;17.57;100.00;100604.16;4990403;28;20030;-50
2022/11/07 05:02:10;;;;;;;16.83;3.83;;;;;;;17.47;100.00;100593.16;4990681;28;20045;-52
2022/11/07 05:04:35;;;;;;;26.33;4.47;;;;;;;17.31;100.00;100608.34;4987008;28;20112;-47
2022/11/07 05:07:01;;;;;;;13.80;3.10;;;;;;;17.84;100.00;100602.59;4983948;28;20090;-50
2022/11/07 05:09:28;;;;;;;13.93;3.07;;;;;;;18.12;100.00;100619.78;4992339;28;20023;-49
2022/11/07 05:11:54;;;;;;;15.77;4.00;;;;;;;18.05;100.00;100623.47;4988360;28;20340;-47
2022/11/07 05:14:19;;;;;;;22.75;3.38;;;;;;;17.96;100.00;100626.84;4987384;28;20280;-51
2022/11/07 05:16:45;;;;;;;20.00;4.47;;;;;;;17.76;100.00;100617.38;4990175;28;20117;-49
2022/11/07 05:19:15;;;;;;;15.82;3.50;;;;;;;17.49;100.00;100612.66;4992401;28;20084;-48
2022/11/07 05:21:41;;;;;;;18.90;4.80;;;;;;;18.09;100.00;100621.09;4981638;28;20067;-50
2022/11/07 05:24:07;;;;;;;30.20;4.82;;;;;;;18.35;100.00;100632.22;4988924;28;20297;-47
2022/11/07 05:26:32;;;;;;;18.53;3.87;;;;;;;17.34;100.00;100634.88;4992300;28;20039;-50
2022/11/07 05:28:57;;;;;;;13.30;4.00;;;;;;;17.34;100.00;100632.16;4988730;28;20102;-54
2022/11/07 05:31:23;;;;;;;23.57;3.90;;;;;;;17.77;100.00;100619.03;4989118;28;20062;-48
2022/11/07 05:33:48;;;;;;;16.57;3.67;;;;;;;17.91;100.00;100620.28;4988572;28;20261;-49
2022/11/07 05:36:17;;;;;;;19.47;3.43;;;;;;;17.36;100.00;100616.50;4988971;28;20269;-52
2022/11/07 05:38:45;;;;;;;16.83;3.17;;;;;;;17.49;100.00;100615.34;4988500;28;20034;-50
2022/11/07 05:41:11;;;;;;;15.20;3.17;;;;;;;17.56;100.00;100621.44;4988479;28;20284;-49
2022/11/07 05:43:38;;;;;;;17.17;4.23;;;;;;;17.85;100.00;100629.41;4989843;28;20280;-52
2022/11/07 05:46:04;;;;;;;16.90;3.38;;;;;;;17.50;100.00;100619.69;4988305;28;20373;-48
2022/11/07 05:48:30;;;;;;;16.70;4.40;;;;;;;17.76;100.00;100628.19;4988116;28;20038;-50
2022/11/07 05:50:56;;;;;;;21.70;4.63;;;;;;;17.66;100.00;100637.00;4988865;28;20308;-49
2022/11/07 05:53:24;;;;;;;15.20;4.35;;;;;;;17.63;100.00;100619.38;4988017;28;20269;-49
2022/11/07 05:55:51;;;;;;;23.90;4.87;;;;;;;17.59;100.00;100630.91;4991113;28;20039;-47
2022/11/07 05:58:17;;;;;;;16.03;3.73;;;;;;;17.52;100.00;100619.47;4986283;28;20292;-54
2022/11/07 06:00:44;;;;;;;22.70;3.83;;;;;;;17.51;100.00;100615.94;4989856;28;20264;-48
2022/11/07 06:03:10;;;;;;;14.55;4.00;;;;;;;17.47;100.00;100625.59;4991698;28;20295;-50
2022/11/07 06:05:37;;;;;;;22.42;4.47;;;;;;;17.60;100.00;100621.75;4991453;28;20038;-48
2022/11/07 06:08:04;;;;;;;20.93;4.50;;;;;;;17.36;100.00;100640.03;4989605;28;20043;-49
2022/11/07 06:10:29;;;;;;;20.40;4.43;;;;;;;17.26;100.00;100613.66;4988534;28;20291;-51
2022/11/07 06:13:00;;;;;;;16.58;4.32;;;;;;;17.30;100.00;100631.03;4988685;28;20035;-50
2022/11/07 06:15:27;;;;;;;23.17;4.23;;;;;;;17.36;100.00;100624.63;4988370;28;20035;-50
2022/11/07 06:17:53;;;;;;;11.87;2.87;;;;;;;17.17;100.00;100624.06;4986501;28;20273;-47
2022/11/07 06:20:18;;;;;;;14.93;3.90;;;;;;;17.24;100.00;100624.72;4991330;28;20300;-51
2022/11/07 06:22:44;;;;;;;16.80;3.97;;;;;;;17.33;100.00;100642.16;4986957;28;20280;-51
2022/11/07 06:25:09;;;;;;;14.02;3.95;;;;;;;17.10;100.00;100634.22;4988772;28;20035;-51
2022/11/07 06:27:35;;;;;;;16.73;5.07;;;;;;;16.94;100.00;100642.00;4991453;28;20066;-48
2022/11/07 06:30:00;;;;;;;20.98;3.83;;;;;;;17.37;100.00;100633.56;4988445;28;20038;-50
2022/11/07 06:32:27;;;;;;;15.60;3.63;;;;;;;17.08;100.00;100628.25;4987019;28;20039;-53
2022/11/07 06:34:53;;;;;;;19.77;2.97;;;;;;;17.08;100.00;100639.03;4988338;28;20344;-54
2022/11/07 06:37:19;;;;;;;12.35;3.28;;;;;;;17.08;100.00;100644.44;4986925;28;20519;-53
2022/11/07 06:39:44;;;;;;;21.00;3.87;;;;;;;16.92;100.00;100644.13;4989307;28;20039;-54
2022/11/07 06:42:09;;;;;;;17.02;3.67;;;;;;;17.01;100.00;100661.59;4988866;28;20042;-53
2022/11/07 06:44:35;;;;;;;21.33;3.50;;;;;;;16.95;100.00;100646.34;4986276;28;20036;-51
2022/11/07 06:47:01;;;;;;;26.73;5.00;;;;;;;17.07;100.00;100635.50;4983897;28;20307;-53
2022/11/07 06:49:27;;;;;;;19.98;3.65;;;;;;;16.93;100.00;100645.78;4987631;28;20047;-52
2022/11/07 06:51:52;;;;;;;19.83;3.37;;;;;;;16.88;100.00;100643.78;4988061;28;20093;-49
2022/11/07 06:54:18;;;;;;;17.83;4.13;;;;;;;16.88;100.00;100664.59;4988028;28;20030;-49
2022/11/07 06:56:44;;;;;;;19.60;5.00;;;;;;;17.22;100.00;100648.47;4990153;28;20043;-55
2022/11/07 06:59:09;;;;;;;33.53;5.40;;;;;;;16.94;100.00;100654.69;4991379;28;20164;-54
2022/11/07 07:01:35;;;;;;;16.63;4.27;;;;;;;16.85;100.00;100659.69;4992369;28;20171;-49
2022/11/07 07:04:00;;;;;;;17.03;4.53;;;;;;;16.81;100.00;100662.03;4993681;28;20043;-53
2022/11/07 07:06:26;;;;;;;19.98;4.80;;;;;;;16.89;100.00;100667.03;4990486;28;20117;-48
2022/11/07 07:08:51;;;;;;;14.38;4.20;;;;;;;17.23;100.00;100655.50;4992755;28;20042;-50
2022/11/07 07:11:17;;;;;;;21.40;4.47;;;;;;;17.19;100.00;100657.88;4992880;28;20034;-51
2022/11/07 07:13:42;;;;;;;27.88;4.50;;;;;;;16.86;100.00;100674.81;4989955;28;20110;-50
2022/11/07 07:16:08;;;;;;;21.07;4.23;;;;;;;16.85;100.00;100673.19;4992232;28;20065;-52
2022/11/07 07:18:34;;;;;;;15.48;3.38;;;;;;;16.76;100.00;100678.94;4990019;28;20063;-52
2022/11/07 07:21:09;;;;;;;16.87;3.70;;;;;;;16.98;100.00;100678.31;4992841;28;20045;-51
2022/11/07 07:23:36;;;;;;;14.53;4.00;;;;;;;17.16;100.00;100689.97;4990203;28;20430;-51
2022/11/07 07:26:04;;;;;;;20.33;3.73;;;;;;;17.33;100.00;100679.19;4988804;28;20348;-49
2022/11/07 07:28:29;;;;;;;22.20;4.20;;;;;;;17.38;100.00;100678.44;4992146;28;20273;-53
2022/11/07 07:31:32;;;;;;;12.77;3.75;;;;;;;17.13;100.00;100676.94;4993065;28;20299;-50
2022/11/07 07:33:57;;;;;;;16.77;4.03;;;;;;;17.22;100.00;100682.78;4952281;28;20049;-52
2022/11/07 07:36:23;;;;;;;14.87;3.50;;;;;;;17.09;100.00;100678.50;4991618;28;20289;-48
2022/11/07 07:38:50;;;;;;;14.25;2.83;;;;;;;17.30;100.00;100682.38;4990181;28;20273;-52
2022/11/07 07:41:16;;;;;;;14.38;2.75;;;;;;;17.30;100.00;100694.00;4988348;28;20035;-51
2022/11/07 07:43:42;;;;;;;12.73;3.67;;;;;;;17.34;100.00;100680.81;4986990;28;20038;-54
2022/11/07 07:46:09;;;;;;;9.90;3.10;;;;;;;17.23;100.00;100692.53;4987088;28;20050;-50
2022/11/07 07:48:36;;;;;;;13.67;4.63;;;;;;;17.15;100.00;100696.44;4988521;28;20046;-52
2022/11/07 07:51:01;;;;;;;15.33;4.37;;;;;;;17.25;100.00;100731.75;4992426;28;20268;-51
2022/11/07 07:53:27;;;;;;;14.52;3.70;;;;;;;17.51;100.00;100701.63;4987682;28;20034;-49
2022/11/07 07:55:59;;;;;;;18.27;4.03;;;;;;;17.63;100.00;100711.31;4988751;28;20038;-54
2022/11/07 07:58:26;;;;;;;16.83;3.30;;;;;;;17.42;100.00;100722.84;4987605;28;20038;-49
2022/11/07 08:00:53;;;;;;;16.30;3.70;;;;;;;17.69;100.00;100719.50;4987816;28;20323;-53
2022/11/07 08:03:19;;;;;;;13.43;3.77;;;;;;;17.53;100.00;100721.13;4990358;28;20281;-52
2022/11/07 08:05:55;;;;;;;21.77;4.30;;;;;;;17.50;100.00;100727.84;4991077;28;20269;-52
2022/11/07 08:08:21;;;;;;;23.60;4.43;;;;;;;17.51;100.00;100712.44;4989540;28;20035;-50
2022/11/07 08:10:52;;;;;;;16.42;3.17;;;;;;;17.26;100.00;100727.97;4989935;28;20272;-47
2022/11/07 08:13:20;;;;;;;22.93;3.30;;;;;;;17.60;100.00;100738.84;4990361;28;20040;-53
2022/11/07 08:15:46;;;;;;;14.20;2.77;;;;;;;17.32;100.00;100721.63;4988041;28;20265;-51
2022/11/07 08:18:11;;;;;;;17.67;3.53;;;;;;;17.67;100.00;100721.63;4985033;28;20280;-49
2022/11/07 08:20:36;;;;;;;15.17;3.27;;;;;;;18.29;100.00;100719.88;4988298;28;20277;-47
2022/11/07 08:23:04;;;;;;;12.38;3.13;;;;;;;18.19;100.00;100725.97;4996559;28;20031;-49
2022/11/07 08:25:30;;;;;;;13.67;3.00;;;;;;;18.33;100.00;100724.50;4989668;28;20039;-52
2022/11/07 08:27:55;;;;;;;15.68;2.95;;;;;;;18.53;100.00;100730.47;4987748;28;20298;-53
2022/11/07 08:30:21;;;;;;;15.90;3.00;;;;;;;17.96;100.00;100729.63;4992683;28;20046;-54
2022/11/07 08:32:47;;;;;;;15.77;2.70;;;;;;;17.49;100.00;100745.97;4988816;28;20027;-49
2022/11/07 08:35:13;;;;;;;20.33;2.38;;;;;;;17.76;100.00;100747.19;4989764;28;20056;-51
2022/11/07 08:37:38;;;;;;;18.63;3.22;;;;;;;17.63;100.00;100741.06;4991395;28;20054;-47
2022/11/07 08:40:04;;;;;;;22.37;3.63;;;;;;;17.15;100.00;100747.78;4990765;28;20038;-51
2022/11/07 08:42:30;;;;;;;;;;;;;;;17.48;100.00;100754.28;4991689;28;20094;-47
2022/11/07 08:44:55;;;;;;;19.00;2.53;;;;;;;17.48;100.00;100755.13;4989546;28;20021;-53
2022/11/07 08:47:20;;;;;;;20.13;2.93;;;;;;;17.64;100.00;100758.06;4989112;28;20035;-51
2022/11/07 08:49:46;;;;;;;12.98;2.53;;;;;;;17.29;100.00;100759.09;4990965;28;20062;-47
2022/11/07 08:52:12;;;;;;;15.73;2.90;;;;;;;17.49;100.00;100759.47;4987689;28;20051;-47
2022/11/07 08:54:37;;;;;;;16.13;2.57;;;;;;;17.58;100.00;100772.59;4990228;28;20035;-48
2022/11/07 08:57:02;;;;;;;15.50;3.07;;;;;;;17.29;100.00;100776.13;4986720;28;20118;-52
2022/11/07 08:59:28;;;;;;;11.23;2.60;;;;;;;17.56;100.00;100782.81;4986288;28;20035;-51
2022/11/07 09:01:54;;;;;;;13.47;3.63;;;;;;;17.43;100.00;100771.28;4988230;28;20038;-50
2022/11/07 09:04:19;;;;;;;15.02;3.00;;;;;;;17.36;100.00;100780.59;4990060;28;20042;-49
2022/11/07 09:06:45;;;;;;;18.37;3.37;;;;;;;17.16;100.00;100773.75;4988831;28;20035;-47
2022/11/07 09:09:10;;;;;;;14.10;3.55;;;;;;;17.61;100.00;100786.44;4986805;28;20046;-50
2022/11/07 09:11:36;;;;;;;10.67;3.50;;;;;;;17.48;100.00;100778.63;4985510;28;20049;-49
2022/11/07 09:14:01;;;;;;;19.60;3.17;;;;;;;17.68;100.00;100782.75;4989678;28;20269;-49
2022/11/07 09:16:27;;;;;;;9.85;2.35;;;;;;;17.51;100.00;100783.53;4989524;28;20039;-51
2022/11/07 09:18:52;;;;;;;16.95;2.97;;;;;;;17.62;100.00;100779.97;4987872;28;20035;-50
2022/11/07 09:21:18;;;;;;;15.73;3.20;;;;;;;17.82;100.00;100788.66;4990325;28;20058;-53
2022/11/07 09:23:44;;;;;;;;;;;;;;;18.22;100.00;100789.56;4991255;28;20042;-53
2022/11/07 09:26:09;;;;;;;14.50;3.27;;;;;;;18.18;100.00;100790.06;4991596;28;19914;-52
2022/11/07 09:28:35;;;;;;;9.17;2.57;;;;;;;18.18;100.00;100800.91;4988788;28;20038;-48
2022/11/07 09:31:03;;;;;;;12.52;3.28;;;;;;;18.31;100.00;100805.16;4988756;28;20057;-52
2022/11/07 09:33:28;;;;;;;14.60;3.47;;;;;;;18.40;100.00;100819.09;4990352;28;20042;-47
2022/11/07 09:35:58;;;;;;;26.90;3.92;;;;;;;18.85;100.00;100806.44;5001451;28;20279;-54
2022/11/07 09:38:23;;;;;;;12.13;3.87;;;;;;;18.65;100.00;100811.59;4986959;28;20053;-50
2022/11/07 09:41:05;;;;;;;24.48;4.13;;;;;;;18.98;100.00;100805.25;4983680;28;20035;-50
2022/11/07 09:44:00;;;;;;;16.97;2.83;;;;;;;18.58;100.00;100809.06;4984725;28;20065;-49
2022/11/07 09:46:54;;;;;;;14.80;3.80;;;;;;;18.43;100.00;100805.03;4989120;28;20273;-51
2022/11/07 09:49:29;;;;;;;12.20;3.07;;;;;;;18.26;100.00;100815.09;4990378;28;20308;-48
2022/11/07 09:52:11;;;;;;;17.27;3.57;;;;;;;18.14;100.00;100799.75;4971462;28;20283;-48
2022/11/07 09:54:43;;;;;;;19.07;3.20;;;;;;;18.40;100.00;100821.78;4953678;28;20294;-52
2022/11/07 09:57:14;;;;;;;15.33;3.73;;;;;;;18.26;100.00;100810.50;4947454;28;20800;-48
2022/11/07 09:59:44;;;;;;;18.00;4.43;;;;;;;18.35;100.00;100813.59;4952956;29;20270;-50
2022/11/07 10:02:16;;;;;;;19.10;3.50;;;;;;;18.57;100.00;100810.97;4945759;29;20308;-52
2022/11/07 10:04:43;;;;;;;16.77;4.27;;;;;;;18.77;100.00;100804.16;4951127;28;20286;-50
2022/11/07 10:07:33;;;;;;;16.67;3.03;;;;;;;18.60;100.00;100809.63;4950712;29;20289;-48
2022/11/07 10:10:32;;;;;;;18.57;3.20;;;;;;;18.71;100.00;100816.81;4950933;29;20262;-50
2022/11/07 10:13:15;;;;;;;16.73;3.60;;;;;;;18.44;100.00;100811.28;4951471;29;20305;-48
2022/11/07 10:15:59;;;;;;;22.77;3.40;;;;;;;18.84;100.00;100817.50;4946454;29;20344;-52
2022/11/07 10:18:41;;;;;;;14.17;3.23;;;;;;;19.27;100.00;100823.22;4950103;29;20031;-52
2022/11/07 10:21:22;;;;;;;17.93;3.87;;;;;;;18.88;100.00;100826.75;4951042;29;20036;-54
2022/11/07 10:24:12;;;;;;;20.73;4.13;;;;;;;19.23;100.00;100832.91;4946428;29;20286;-51
2022/11/07 10:26:42;;;;;;;20.30;4.50;;;;;;;19.14;100.00;100841.50;4951490;28;20043;-48
2022/11/07 10:29:13;;;;;;;15.03;3.53;;;;;;;18.95;100.00;100843.69;4949402;28;20048;-53
2022/11/07 10:31:43;;;;;;;17.30;3.57;;;;;;;19.11;100.00;100841.16;4949071;29;20044;-53
2022/11/07 10:34:34;;;;;;;18.20;3.87;;;;;;;19.45;100.00;100835.59;4950323;28;20039;-51
2022/11/07 10:37:00;;;;;;;23.03;3.90;;;;;;;19.43;100.00;100846.69;4952672;29;20043;-49
2022/11/07 10:39:29;;;;;;;15.60;3.80;;;;;;;19.27;100.00;100840.28;4952076;29;20031;-49
2022/11/07 10:42:15;;;;;;;18.30;3.87;;;;;;;19.68;100.00;100841.78;4953600;29;20305;-50
2022/11/07 10:44:42;;;;;;;21.53;3.47;;;;;;;19.76;100.00;100852.16;4954850;29;20088;-53
2022/11/07 10:47:16;;;;;;;16.43;4.70;;;;;;;19.53;100.00;100853.31;4948690;28;20039;-47
2022/11/07 10:49:53;;;;;;;13.40;3.33;;;;;;;19.17;100.00;100840.97;4946576;28;20100;-51
2022/11/07 10:52:18;;;;;;;;;;;;;;;19.23;100.00;100844.56;4980677;28;20122;-51
2022/11/07 10:54:45;;;;;;;17.30;3.30;;;;;;;19.78;100.00;100855.44;4987561;28;19920;-51
2022/11/07 10:57:22;;;;;;;17.60;4.32;;;;;;;19.42;100.00;100849.66;4994480;28;20035;-49
2022/11/07 10:59:50;;;;;;;20.70;4.70;;;;;;;19.66;100.00;100868.34;4984489;28;20036;-54
2022/11/07 11:02:43;;;;;;;13.40;3.70;;;;;;;19.70;100.00;100853.19;4985670;28;20039;-51
2022/11/07 11:05:25;;;;;;;14.13;3.70;;;;;;;19.94;100.00;100852.91;4983806;28;20039;-49
2022/11/07 11:07:54;;;;;;;18.83;4.53;;;;;;;19.67;100.00;100843.66;4990097;28;20057;-52
2022/11/07 11:10:29;;;;;;;12.83;3.83;;;;;;;19.51;100.00;100850.84;4987873;28;20031;-53
2022/11/07 11:12:55;;;;;;;12.13;3.15;;;;;;;19.34;100.00;100846.31;4989789;28;20027;-55
2022/11/07 11:15:23;;;;;;;19.60;3.83;;;;;;;19.42;100.00;100857.81;4991029;28;20046;-52
2022/11/07 11:18:16;;;;;;;17.27;3.77;;;;;;;19.67;100.00;100851.00;4991575;28;20031;-55
2022/11/07 11:20:45;;;;;;;21.20;4.63;;;;;;;19.78;100.00;100856.28;4994215;28;20061;-50
2022/11/07 11:23:20;;;;;;;25.03;4.60;;;;;;;19.56;100.00;100852.78;4987327;28;20039;-53
2022/11/07 11:25:49;;;;;;;23.37;3.20;;;;;;;19.15;100.00;100853.97;4992792;28;20060;-51
2022/11/07 11:28:22;;;;;;;24.00;3.80;;;;;;;19.49;100.00;100842.13;4992253;28;20034;-49
2022/11/07 11:30:56;;;;;;;23.37;4.27;;;;;;;19.92;100.00;100834.16;4992625;28;20104;-53